Aérodrome :
LOGIN :

S'inscrire | Disclaimer

   EN    FR    IT 

 










Légende :    VFR   VFR Marginal   IFR   IFR Intensif   IFR Très Intensif
Visi : 
Plafond : 
>= 8 km
>= 3000ft
5 à 8 km
1000 à 3000 ft
1500m à 5 km
500 à 1000 ft
800 à 1500m
200 à 500 ft
< 800m
< 200 ft
Symboles :   Orages  Brouillard  Fortes neiges  Fortes précipitations  Vent > 20 kt
SIGMETs :   Divers  Orages  Givrage  Turbulence  Onde Orograph.  Cendres Volcan.






- Altitude de l'aérodrome : 1363 ft


ETIC - Grafenwohr Army Air Field

METARs EXPIRÉS :
  • 290856Z AUTO 26008KT 9999 OVC048 01/01 A2972 RMK AO2 SLP085 60002 T00120011 52026 $
  • 290826Z AUTO 25009G15KT 9999 SCT016 SCT020 OVC048 01/01 A2971 RMK AO2 SLP082 $
  • 290811Z AUTO 24006KT 9999 BKN015 BKN022 OVC050 01/01 A2971 RMK AO2 SLP082 $

TAF AMD TAF ETIC
Valide du 29 à 05h jusqu'au 30 à 08h UTC


290516Z 2905/3008 26012KT 9999 OVC030 620302 QNH2960INS
TEMPO 2905/2909 5000 -SN OVC008 630085
BECMG 2908/2909 27015G25KT 9000 -SHRA BKN015 BKN030 630156 QNH2967INS
BECMG 2915/2916 27012G18KT 8000 -SHRASN BKN015 BKN025 630158 QNH2976INS
BECMG 3002/3003 28009KT 8000 -RA BKN015 OVC025 630156 QNH2990INS TX03/2912Z TN00/2906Z



MET'MAP, la Météo Aéronautique d'un coup d'oeil ! - Copyright ORBIFLY Décembre 2007 - Disclaimer

ORBIFLY MET'MAP TEAM :

Programmation & Développement : Alexandra Zaïnal
Sur une idée originale de : Baudouin d'Aumeries
Assistance à la programmation : Marc-Olivier Méhu
Soutien technique & logistique : Manuel Goepfert

Contact : metmap@orbifly.com




SOURCES & CREDITS :

   NOAA